createdAt,value
2019-01-21T00:00:48.259Z,79.50
2019-01-21T00:03:18.533Z,79.70
2019-01-21T00:05:48.758Z,79.50
2019-01-21T00:08:18.951Z,79.40
2019-01-21T00:10:49.101Z,79.00
2019-01-21T00:13:19.249Z,79.50
2019-01-21T00:15:49.460Z,79.60
2019-01-21T00:18:20.020Z,79.50
2019-01-21T00:20:50.157Z,79.50
2019-01-21T00:23:20.307Z,79.40
2019-01-21T00:25:50.474Z,79.40
2019-01-21T00:28:20.621Z,79.30
2019-01-21T00:30:50.765Z,79.30
2019-01-21T00:33:20.927Z,79.40
2019-01-21T00:35:51.110Z,79.40
2019-01-21T00:38:21.611Z,78.70
2019-01-21T00:40:51.757Z,79.10
2019-01-21T00:43:21.878Z,78.90
2019-01-21T00:45:52.086Z,79.00
2019-01-21T00:48:22.245Z,78.90
2019-01-21T00:50:52.410Z,79.10
2019-01-21T00:53:22.573Z,79.50
2019-01-21T00:55:52.823Z,79.60
2019-01-21T00:58:22.993Z,79.90
2019-01-21T01:00:53.151Z,80.00
2019-01-21T01:03:23.568Z,79.90
2019-01-21T01:05:53.739Z,80.00
2019-01-21T01:08:23.882Z,80.10
2019-01-21T01:10:54.046Z,80.70
2019-01-21T01:13:24.206Z,80.60
2019-01-21T01:15:54.401Z,80.90
2019-01-21T01:18:24.621Z,81.30
2019-01-21T01:20:54.796Z,81.10
2019-01-21T01:23:24.968Z,81.40
2019-01-21T01:25:55.125Z,81.30
2019-01-21T01:28:25.279Z,81.20
2019-01-21T01:30:55.653Z,81.30
2019-01-21T01:33:25.805Z,81.30
2019-01-21T01:35:55.964Z,81.00
2019-01-21T01:38:26.137Z,81.20
2019-01-21T01:40:56.320Z,81.80
2019-01-21T01:43:26.499Z,82.10
2019-01-21T01:45:56.636Z,82.00
2019-01-21T01:48:26.802Z,82.20
2019-01-21T01:50:56.941Z,82.50
2019-01-21T01:53:27.362Z,82.80
2019-01-21T01:55:57.513Z,82.70
2019-01-21T01:58:27.660Z,83.10
2019-01-21T02:04:46.258Z,83.20
2019-01-21T02:07:16.408Z,83.10
2019-01-21T02:09:46.608Z,83.10
2019-01-21T02:12:16.754Z,83.40
2019-01-21T02:14:46.921Z,83.30
2019-01-21T02:17:17.242Z,83.80
2019-01-21T02:19:48.700Z,83.70
2019-01-21T02:22:20.178Z,83.80
2019-01-21T02:24:52.729Z,83.50
2019-01-21T02:27:26.886Z,83.50
2019-01-21T02:30:10.293Z,83.60
2019-01-21T02:33:02.699Z,83.80
2019-01-21T02:35:38.443Z,83.60
2019-01-21T02:38:22.082Z,84.00
2019-01-21T02:41:02.452Z,83.90
2019-01-21T02:43:52.373Z,84.00
2019-01-21T02:46:50.212Z,84.00
2019-01-21T02:49:36.816Z,84.10
2019-01-21T02:52:17.643Z,84.10
2019-01-21T02:55:37.739Z,84.30
2019-01-21T02:58:15.449Z,84.10
2019-01-21T03:01:13.747Z,84.20
2019-01-21T03:04:00.696Z,84.20
2019-01-21T03:06:44.309Z,84.80
2019-01-21T03:09:34.165Z,84.70
2019-01-21T03:12:39.019Z,84.80
2019-01-21T03:15:22.662Z,84.90
2019-01-21T03:18:26.551Z,84.80
2019-01-21T03:21:13.113Z,85.10
2019-01-21T03:24:16.026Z,86.00
2019-01-21T03:27:10.072Z,85.40
2019-01-21T03:30:08.416Z,85.40
2019-01-21T03:33:07.106Z,85.50
2019-01-21T03:36:06.221Z,85.40
2019-01-21T03:38:56.097Z,85.60
2019-01-21T03:41:51.123Z,85.90
2019-01-21T03:44:54.035Z,86.00
2019-01-21T03:47:31.725Z,86.10
2019-01-21T03:50:25.798Z,86.20
2019-01-21T03:53:08.626Z,86.00
2019-01-21T03:55:38.887Z,86.30
2019-01-21T03:58:36.306Z,86.30
2019-01-21T04:01:13.967Z,86.00
2019-01-21T04:04:10.919Z,86.30
2019-01-21T04:06:48.459Z,86.50
2019-01-21T04:09:39.561Z,86.40
2019-01-21T04:12:14.416Z,86.40
2019-01-21T04:15:08.699Z,86.70
2019-01-21T04:18:11.689Z,87.00
2019-01-21T04:21:04.055Z,87.20
2019-01-21T04:23:53.702Z,87.40
2019-01-21T04:27:04.303Z,87.70
2019-01-21T04:30:17.802Z,87.90
2019-01-21T04:32:52.662Z,88.20
2019-01-21T04:35:41.469Z,88.30
2019-01-21T04:38:44.702Z,88.10
2019-01-21T04:41:39.023Z,88.60
2019-01-21T04:44:49.535Z,88.60
2019-01-21T04:47:29.668Z,89.50
2019-01-21T04:50:10.268Z,88.60
2019-01-21T04:52:54.232Z,88.90
2019-01-21T04:55:34.393Z,88.80
2019-01-21T04:58:20.956Z,89.30
2019-01-21T05:01:20.107Z,89.70
2019-01-21T05:04:28.167Z,89.50
2019-01-21T05:07:29.804Z,89.50
2019-01-21T05:10:19.044Z,89.50
2019-01-21T05:13:17.279Z,89.70
2019-01-21T05:16:19.417Z,90.00
2019-01-21T05:19:23.120Z,90.20
2019-01-21T05:22:06.547Z,90.30
2019-01-21T05:25:19.308Z,90.50
2019-01-21T05:28:12.604Z,90.60
2019-01-21T05:31:02.308Z,90.30
2019-01-21T05:34:05.541Z,90.40
2019-01-21T05:36:55.529Z,91.10
2019-01-21T05:39:54.676Z,91.20
2019-01-21T05:42:56.960Z,91.20
2019-01-21T05:45:52.760Z,91.00
2019-01-21T05:49:05.874Z,91.40
2019-01-21T05:52:19.679Z,91.30
2019-01-21T05:55:44.734Z,91.60
2019-01-21T05:58:27.977Z,91.90
2019-01-21T06:01:11.826Z,91.20
2019-01-21T06:03:58.220Z,91.50
2019-01-21T06:06:57.045Z,91.30
2019-01-21T06:09:36.998Z,91.50
2019-01-21T06:12:32.650Z,91.80
2019-01-21T06:15:19.179Z,92.60
2019-01-21T06:18:05.096Z,92.40
2019-01-21T06:20:46.012Z,93.20
2019-01-21T06:23:29.503Z,92.10
2019-01-21T06:26:31.438Z,92.00
2019-01-21T06:29:30.787Z,91.80
2019-01-21T06:32:17.389Z,92.20
2019-01-21T06:35:00.756Z,92.10
2019-01-21T06:37:47.255Z,92.60
2019-01-21T06:40:55.657Z,92.50
2019-01-21T06:43:42.042Z,92.40
2019-01-21T06:46:26.081Z,93.30
2019-01-21T06:49:12.292Z,92.60
2019-01-21T06:51:56.389Z,92.50
2019-01-21T06:54:40.288Z,92.60
2019-01-21T06:57:18.286Z,92.60
2019-01-21T07:00:08.167Z,93.50
2019-01-21T07:02:48.786Z,92.90
2019-01-21T07:06:01.246Z,93.20
2019-01-21T07:09:13.822Z,93.00
2019-01-21T07:11:54.212Z,93.30
2019-01-21T07:17:19.162Z,93.40
2019-01-21T07:20:11.885Z,94.00
2019-01-21T07:22:58.890Z,94.30
2019-01-21T07:25:42.226Z,94.20
2019-01-21T07:28:17.110Z,94.10
2019-01-21T07:31:09.534Z,93.70
2019-01-21T07:33:56.599Z,93.10
2019-01-21T07:36:34.180Z,92.80
2019-01-21T07:39:33.898Z,92.60
2019-01-21T07:42:33.118Z,92.40
2019-01-21T07:45:16.716Z,92.70
2019-01-21T07:48:15.907Z,92.50
2019-01-21T07:51:40.696Z,92.60
2019-01-21T07:54:15.612Z,93.00
2019-01-21T07:56:59.430Z,92.40
2019-01-21T08:00:07.106Z,92.50
2019-01-21T08:03:12.022Z,92.60
2019-01-21T08:05:55.908Z,92.80
2019-01-21T08:08:56.374Z,92.80
2019-01-21T08:11:33.910Z,92.80
2019-01-21T08:14:14.829Z,91.40
2019-01-21T08:16:58.947Z,88.40
2019-01-21T08:19:48.752Z,83.20
2019-01-21T08:22:53.939Z,81.40
2019-01-21T08:25:47.199Z,77.10
2019-01-21T08:28:37.009Z,73.20
2019-01-21T08:31:14.791Z,71.20
2019-01-21T08:34:20.973Z,68.90
2019-01-21T08:37:17.837Z,68.80
2019-01-21T08:39:52.726Z,65.00
2019-01-21T08:42:47.906Z,64.00
2019-01-21T08:45:51.614Z,63.80
2019-01-21T08:48:32.412Z,61.20
2019-01-21T08:51:24.812Z,59.70
2019-01-21T08:54:19.876Z,58.20
2019-01-21T08:56:57.898Z,57.60
2019-01-21T08:59:38.825Z,57.60
2019-01-21T09:02:37.248Z,57.40
2019-01-21T09:05:36.456Z,56.80
2019-01-21T09:08:25.986Z,55.70
2019-01-21T09:11:03.662Z,55.60
2019-01-21T09:13:55.791Z,55.30
2019-01-21T09:16:45.577Z,55.00
2019-01-21T09:19:29.293Z,54.50
2019-01-21T09:22:10.333Z,54.80
2019-01-21T09:25:23.280Z,56.30
2019-01-21T09:28:24.975Z,56.20
2019-01-21T09:31:08.606Z,56.70
2019-01-21T09:34:13.865Z,54.80
2019-01-21T09:36:51.243Z,55.80
2019-01-21T09:39:58.468Z,56.30
2019-01-21T09:42:33.558Z,55.70
2019-01-21T09:45:19.981Z,54.80
2019-01-21T09:47:48.546Z,52.90
2019-01-21T09:50:19.665Z,51.40
2019-01-21T09:52:50.165Z,50.40
2019-01-21T09:55:22.894Z,49.30
2019-01-21T09:57:57.797Z,50.00
2019-01-21T10:00:27.995Z,49.50
2019-01-21T10:02:59.715Z,48.60
2019-01-21T10:05:32.536Z,49.50
2019-01-21T10:08:16.379Z,48.20
2019-01-21T10:11:09.540Z,46.80
2019-01-21T10:14:02.747Z,47.20
2019-01-21T10:16:40.283Z,46.20
2019-01-21T10:19:20.938Z,45.00
2019-01-21T10:21:58.532Z,43.60
2019-01-21T10:25:10.237Z,43.50
2019-01-21T10:27:53.909Z,42.70
2019-01-21T10:30:45.171Z,41.50
2019-01-21T10:33:46.638Z,41.20
2019-01-21T10:36:42.345Z,40.90
2019-01-21T10:39:28.897Z,39.60
2019-01-21T10:42:27.550Z,39.30
2019-01-21T10:45:30.988Z,37.90
2019-01-21T10:48:33.216Z,37.20
2019-01-21T10:51:26.156Z,36.60
2019-01-21T10:54:19.242Z,37.00
2019-01-21T10:56:56.939Z,35.70
2019-01-21T10:59:49.034Z,35.00
2019-01-21T11:02:43.183Z,33.00
2019-01-21T11:05:33.132Z,33.60
2019-01-21T11:08:32.075Z,32.70
2019-01-21T11:11:24.747Z,32.70
2019-01-21T11:14:12.514Z,32.80
2019-01-21T11:17:02.051Z,32.30
2019-01-21T11:19:54.626Z,31.00
2019-01-21T11:22:29.662Z,31.30
2019-01-21T11:25:34.580Z,31.10
2019-01-21T11:28:14.678Z,31.10
2019-01-21T11:30:55.289Z,31.90
2019-01-21T11:33:51.099Z,32.60
2019-01-21T11:36:50.053Z,32.10
2019-01-21T11:39:46.087Z,32.10
2019-01-21T11:42:40.333Z,31.70
2019-01-21T11:45:29.651Z,31.10
2019-01-21T11:48:04.477Z,31.10
2019-01-21T11:50:48.306Z,31.20
2019-01-21T11:53:50.049Z,31.80
2019-01-21T11:56:30.391Z,32.20
2019-01-21T11:59:08.120Z,33.10
2019-01-21T12:02:05.381Z,32.40
2019-01-21T12:04:46.265Z,33.10
2019-01-21T12:07:42.126Z,33.20
2019-01-21T12:10:36.605Z,33.20
2019-01-21T12:13:29.593Z,32.90
2019-01-21T12:16:45.384Z,32.70
2019-01-21T12:19:50.638Z,33.40
2019-01-21T12:22:40.646Z,34.20
2019-01-21T12:25:21.037Z,33.30
2019-01-21T12:28:01.246Z,32.40
2019-01-21T12:30:41.294Z,32.10
2019-01-21T12:33:34.136Z,31.70
2019-01-21T12:36:09.011Z,31.30
2019-01-21T12:39:10.787Z,30.70
2019-01-21T12:42:11.236Z,30.40
2019-01-21T12:45:03.882Z,30.40
2019-01-21T12:47:56.590Z,30.20
2019-01-21T12:51:00.912Z,30.40
2019-01-21T12:54:01.982Z,30.40
2019-01-21T12:56:51.017Z,30.60
2019-01-21T12:59:49.841Z,31.60
2019-01-21T13:02:35.952Z,31.80
2019-01-21T13:05:33.073Z,32.50
2019-01-21T13:08:16.826Z,34.00
2019-01-21T13:11:00.423Z,34.80
2019-01-21T13:13:43.763Z,35.50
2019-01-21T13:16:35.246Z,35.20
2019-01-21T13:19:39.916Z,36.10
2019-01-21T13:22:34.432Z,36.50
2019-01-21T13:25:33.461Z,35.80
2019-01-21T13:28:27.642Z,34.70
2019-01-21T13:31:25.986Z,32.60
2019-01-21T13:34:28.223Z,33.40
2019-01-21T13:37:17.276Z,32.80
2019-01-21T13:40:03.331Z,33.50
2019-01-21T13:42:41.165Z,33.80
2019-01-21T13:45:19.007Z,34.70
2019-01-21T13:47:59.661Z,34.40
2019-01-21T13:50:40.457Z,35.20
2019-01-21T13:53:29.926Z,37.50
2019-01-21T13:56:19.774Z,38.70
2019-01-21T13:59:12.776Z,39.10
2019-01-21T14:02:02.795Z,38.60
2019-01-21T14:04:55.791Z,39.10
2019-01-21T14:07:48.918Z,39.00
2019-01-21T14:10:44.899Z,38.80
2019-01-21T14:13:28.593Z,38.90
2019-01-21T14:16:05.913Z,40.00
2019-01-21T14:18:52.528Z,40.70
2019-01-21T14:21:36.341Z,41.00
2019-01-21T14:24:45.627Z,41.40
2019-01-21T14:27:37.058Z,41.90
2019-01-21T14:30:32.937Z,42.70
2019-01-21T14:33:10.761Z,42.80
2019-01-21T14:36:03.439Z,42.90
2019-01-21T14:38:50.390Z,44.00
2019-01-21T14:41:34.300Z,44.60
2019-01-21T14:44:23.938Z,44.70
2019-01-21T14:47:19.553Z,45.30
2019-01-21T14:49:56.965Z,45.30
2019-01-21T14:52:49.659Z,45.20
2019-01-21T14:55:36.521Z,45.50
2019-01-21T14:58:25.919Z,46.40
2019-01-21T15:01:12.910Z,47.00
2019-01-21T15:04:11.770Z,48.10
2019-01-21T15:06:58.545Z,49.70
2019-01-21T15:09:48.738Z,51.50
2019-01-21T15:12:41.794Z,52.90
2019-01-21T15:15:49.833Z,51.30
2019-01-21T15:18:33.258Z,50.90
2019-01-21T15:21:27.619Z,51.30
2019-01-21T15:24:38.998Z,51.50
2019-01-21T15:28:00.193Z,51.90
2019-01-21T15:31:08.305Z,51.70
2019-01-21T15:34:12.885Z,52.70
2019-01-21T15:37:11.577Z,51.90
2019-01-21T15:40:00.980Z,52.10
2019-01-21T15:42:41.753Z,52.60
2019-01-21T15:45:54.052Z,53.10
2019-01-21T15:48:31.465Z,54.00
2019-01-21T15:51:31.267Z,53.70
2019-01-21T15:54:25.862Z,54.10
2019-01-21T15:57:29.441Z,54.30
2019-01-21T16:00:37.848Z,54.70
2019-01-21T16:03:50.694Z,55.10
2019-01-21T16:06:52.666Z,55.60
2019-01-21T16:09:59.205Z,56.10
2019-01-21T16:12:43.013Z,56.80
2019-01-21T16:15:26.690Z,56.90
2019-01-21T16:18:22.651Z,57.40
2019-01-21T16:21:20.162Z,57.90
2019-01-21T16:24:22.947Z,58.10
2019-01-21T16:27:00.253Z,58.30
2019-01-21T16:29:40.930Z,58.40
2019-01-21T16:32:11.306Z,58.60
2019-01-21T16:35:03.019Z,58.80
2019-01-21T16:37:37.876Z,59.50
2019-01-21T16:40:24.965Z,60.00
2019-01-21T16:42:55.284Z,60.00
2019-01-21T16:45:25.487Z,60.20
2019-01-21T16:47:55.694Z,60.80
2019-01-21T16:50:25.825Z,61.10
2019-01-21T16:52:56.026Z,61.80
2019-01-21T16:55:26.173Z,62.30
2019-01-21T16:57:56.317Z,62.90
2019-01-21T17:00:26.536Z,62.80
2019-01-21T17:02:56.710Z,62.90
2019-01-21T17:05:26.848Z,63.30
2019-01-21T17:07:57.186Z,63.60
2019-01-21T17:10:27.359Z,64.00
2019-01-21T17:12:57.844Z,64.30
2019-01-21T17:15:28.034Z,65.10
2019-01-21T17:17:58.231Z,65.20
2019-01-21T17:20:28.382Z,65.50
2019-01-21T17:22:58.580Z,65.50
2019-01-21T17:25:28.851Z,65.70
2019-01-21T17:27:58.985Z,65.90
2019-01-21T17:30:29.248Z,66.50
2019-01-21T17:32:59.412Z,67.30
2019-01-21T17:35:29.613Z,67.30
2019-01-21T17:37:59.774Z,67.00
2019-01-21T17:40:32.881Z,67.10
2019-01-21T17:43:03.027Z,66.90
2019-01-21T17:45:33.258Z,67.00
2019-01-21T17:48:03.409Z,67.90
2019-01-21T17:50:33.600Z,67.20
2019-01-21T17:53:03.777Z,67.60
2019-01-21T17:55:33.924Z,67.20
2019-01-21T17:58:04.372Z,67.60
2019-01-21T18:00:34.540Z,67.90
2019-01-21T18:03:04.865Z,68.00
2019-01-21T18:05:35.046Z,69.00
2019-01-21T18:08:05.473Z,68.90
2019-01-21T18:10:35.650Z,69.10
2019-01-21T18:13:05.827Z,68.60
2019-01-21T18:15:36.015Z,68.60
2019-01-21T18:18:06.171Z,69.00
2019-01-21T18:20:36.481Z,69.50
2019-01-21T18:23:06.841Z,69.70
2019-01-21T18:25:37.010Z,70.40
2019-01-21T18:28:07.188Z,70.20
2019-01-21T18:30:37.354Z,70.00
2019-01-21T18:33:07.525Z,69.90
2019-01-21T18:35:37.698Z,69.60
2019-01-21T18:38:08.193Z,70.00
2019-01-21T18:40:38.429Z,70.60
2019-01-21T18:43:08.566Z,70.80
2019-01-21T18:45:39.079Z,70.90
2019-01-21T18:48:09.240Z,70.80
2019-01-21T18:50:39.416Z,71.00
2019-01-21T18:53:09.624Z,71.20
2019-01-21T18:55:39.772Z,71.80
2019-01-21T18:58:10.398Z,71.90
2019-01-21T19:00:40.525Z,72.10
2019-01-21T19:03:10.721Z,72.60
2019-01-21T19:05:40.890Z,72.60
2019-01-21T19:08:11.055Z,72.80
2019-01-21T19:10:41.216Z,73.20
2019-01-21T19:13:11.370Z,73.70
2019-01-21T19:15:41.541Z,73.80
2019-01-21T19:18:11.698Z,74.00
2019-01-21T19:20:41.911Z,73.90
2019-01-21T19:23:12.050Z,73.90
2019-01-21T19:25:42.221Z,73.50
2019-01-21T19:28:12.410Z,73.20
2019-01-21T19:30:42.580Z,73.40
2019-01-21T19:33:12.788Z,73.20
2019-01-21T19:35:43.070Z,73.60
2019-01-21T19:38:13.242Z,73.60
2019-01-21T19:40:43.467Z,74.10
2019-01-21T19:43:13.668Z,74.30
2019-01-21T19:45:43.837Z,74.60
2019-01-21T19:48:14.033Z,76.00
2019-01-21T19:50:44.223Z,74.50
2019-01-21T19:53:14.403Z,73.20
2019-01-21T19:55:44.691Z,72.50
2019-01-21T19:58:14.902Z,73.30
2019-01-21T20:00:45.053Z,74.00
2019-01-21T20:03:15.234Z,75.60
2019-01-21T20:05:45.443Z,77.70
2019-01-21T20:08:15.617Z,78.00
2019-01-21T20:10:45.796Z,78.30
2019-01-21T20:13:15.976Z,78.60
2019-01-21T20:15:46.176Z,78.20
2019-01-21T20:18:16.371Z,77.60
2019-01-21T20:20:46.513Z,77.50
2019-01-21T20:23:16.700Z,77.90
2019-01-21T20:25:46.861Z,78.00
2019-01-21T20:28:17.035Z,78.10
2019-01-21T20:30:47.175Z,77.90
2019-01-21T20:33:17.422Z,77.50
2019-01-21T20:35:47.616Z,77.30
2019-01-21T20:38:17.882Z,77.20
2019-01-21T20:40:48.038Z,77.10
2019-01-21T20:43:18.230Z,77.40
2019-01-21T20:45:48.380Z,77.60
2019-01-21T20:48:18.546Z,77.60
2019-01-21T20:50:48.758Z,77.70
2019-01-21T20:53:18.946Z,77.40
2019-01-21T20:55:49.169Z,77.60
2019-01-21T20:58:19.406Z,78.40
2019-01-21T21:00:49.610Z,79.10
2019-01-21T21:03:19.853Z,79.90
2019-01-21T21:05:50.020Z,80.50
2019-01-21T21:08:20.194Z,80.10
2019-01-21T21:10:50.347Z,80.30
2019-01-21T21:13:20.527Z,80.40
2019-01-21T21:15:50.754Z,80.60
2019-01-21T21:18:20.958Z,80.80
2019-01-21T21:20:51.098Z,80.80
2019-01-21T21:23:21.323Z,80.10
2019-01-21T21:25:51.569Z,80.70
2019-01-21T21:28:21.858Z,81.10
2019-01-21T21:30:52.279Z,81.20
2019-01-21T21:33:22.424Z,81.20
2019-01-21T21:35:52.585Z,81.20
2019-01-21T21:38:22.737Z,81.50
2019-01-21T21:40:52.906Z,81.10
2019-01-21T21:43:23.380Z,80.60
2019-01-21T21:45:53.548Z,80.80
2019-01-21T21:48:23.706Z,80.60
2019-01-21T21:50:53.855Z,81.80
2019-01-21T21:53:24.081Z,81.40
2019-01-21T21:55:54.205Z,81.50
2019-01-21T21:58:24.400Z,81.20
2019-01-21T22:00:54.548Z,81.50
2019-01-21T22:03:24.688Z,82.50
2019-01-21T22:05:54.885Z,82.00
2019-01-21T22:08:25.075Z,81.80
2019-01-21T22:10:55.227Z,81.70
2019-01-21T22:13:25.405Z,81.80
2019-01-21T22:15:55.560Z,82.30
2019-01-21T22:18:25.725Z,82.70
2019-01-21T22:20:55.874Z,82.70
2019-01-21T22:23:26.035Z,83.40
2019-01-21T22:25:56.251Z,82.30
2019-01-21T22:28:26.410Z,81.60
2019-01-21T22:30:56.568Z,81.00
2019-01-21T22:33:26.763Z,81.40
2019-01-21T22:35:56.911Z,82.20
2019-01-21T22:38:27.056Z,83.00
2019-01-21T22:40:57.238Z,82.70
2019-01-21T22:43:27.652Z,82.10
2019-01-21T22:45:57.835Z,81.80
2019-01-21T22:48:28.004Z,83.10
2019-01-21T22:50:58.156Z,82.00
2019-01-21T22:53:28.357Z,82.30
2019-01-21T22:55:58.499Z,82.90
2019-01-21T22:58:28.655Z,83.50
2019-01-21T23:01:03.542Z,83.90
2019-01-21T23:03:33.710Z,84.60
2019-01-21T23:06:03.862Z,85.10
2019-01-21T23:08:34.012Z,84.80
2019-01-21T23:11:04.249Z,84.20
2019-01-21T23:13:34.416Z,83.90
2019-01-21T23:16:04.735Z,82.80
2019-01-21T23:18:35.261Z,81.90
2019-01-21T23:21:05.435Z,81.00
2019-01-21T23:23:35.591Z,80.30
2019-01-21T23:26:05.756Z,81.50
2019-01-21T23:28:35.906Z,82.50
2019-01-21T23:31:06.337Z,83.10
2019-01-21T23:33:36.510Z,82.90
2019-01-21T23:36:06.676Z,83.00
2019-01-21T23:38:36.828Z,83.50
2019-01-21T23:41:06.990Z,85.00
2019-01-21T23:43:37.448Z,84.10
2019-01-21T23:46:07.625Z,84.10
2019-01-21T23:48:37.774Z,84.50
2019-01-21T23:51:08.571Z,84.10
2019-01-21T23:53:38.695Z,84.30
2019-01-21T23:56:09.033Z,83.90
2019-01-21T23:58:39.193Z,83.60
